Time;durP1;ratioP1;P1;durP2;ratioP2;P2;SDS_P1;SDS_P2;PMS_P1;PMS_P2;Temp;Humidity;BMP_temperature;BMP_pressure;BME280_temperature;BME280_humidity;BME280_pressure;Samples;Min_cycle;Max_cycle;Signal;HPM_P1;HPM_P2
2023/07/17 00:00:29;;;;;;;12.13;11.00;;;;;;;;;;5096649;28;20032;-82
2023/07/17 00:02:55;;;;;;;12.60;10.32;;;;;;;;;;5094231;28;20475;-80
2023/07/17 00:05:22;;;;;;;10.57;9.50;;;;;;;;;;5096044;28;20024;-81
2023/07/17 00:07:48;;;;;;;15.32;10.60;;;;;;;;;;5096445;28;20513;-80
2023/07/17 00:10:14;;;;;;;15.52;10.05;;;;;;;;;;5099486;28;20070;-80
2023/07/17 00:12:41;;;;;;;13.57;10.57;;;;;;;;;;5098529;28;20056;-80
2023/07/17 00:15:08;;;;;;;12.18;10.82;;;;;;;;;;5099015;28;20040;-81
2023/07/17 00:17:34;;;;;;;15.65;10.98;;;;;;;;;;5100813;28;20414;-81
2023/07/17 00:20:00;;;;;;;15.70;11.07;;;;;;;;;;5096882;28;20123;-82
2023/07/17 00:22:26;;;;;;;12.23;11.10;;;;;;;;;;5096209;28;20036;-83
2023/07/17 00:24:52;;;;;;;13.85;11.52;;;;;;;;;;5096581;28;20032;-82
2023/07/17 00:27:19;;;;;;;16.48;10.52;;;;;;;;;;5098972;28;20042;-82
2023/07/17 00:29:45;;;;;;;15.98;10.75;;;;;;;;;;5096591;28;20036;-81
2023/07/17 00:32:11;;;;;;;14.00;10.45;;;;;;;;;;5097065;28;20047;-82
2023/07/17 00:34:41;;;;;;;16.73;9.80;;;;;;;;;;5096911;28;20067;-79
2023/07/17 00:37:08;;;;;;;24.40;10.90;;;;;;;;;;5097859;28;20387;-80
2023/07/17 00:39:34;;;;;;;24.40;10.27;;;;;;;;;;5099798;28;20043;-80
2023/07/17 00:42:01;;;;;;;10.88;9.82;;;;;;;;;;5089987;28;20042;-80
2023/07/17 00:44:30;;;;;;;10.70;8.90;;;;;;;;;;5114079;28;20553;-81
2023/07/17 00:46:57;;;;;;;;;;;;;;;;;;5112383;28;20024;-81
2023/07/17 00:49:24;;;;;;;12.55;9.23;;;;;;;;;;5111922;28;19954;-81
2023/07/17 00:51:51;;;;;;;13.27;10.45;;;;;;;;;;5094683;28;20024;-81
2023/07/17 00:54:16;;;;;;;15.07;9.98;;;;;;;;;;5111398;28;20028;-81
2023/07/17 00:56:42;;;;;;;12.05;10.85;;;;;;;;;;5112467;28;20062;-80
2023/07/17 00:59:08;;;;;;;11.48;10.32;;;;;;;;;;5109907;28;20036;-80
2023/07/17 01:01:34;;;;;;;11.13;10.02;;;;;;;;;;5110447;28;20025;-82
2023/07/17 01:04:05;;;;;;;11.55;10.13;;;;;;;;;;5109415;28;20047;-81
2023/07/17 01:06:31;;;;;;;11.52;10.43;;;;;;;;;;5107466;28;20082;-81
2023/07/17 01:08:57;;;;;;;11.52;10.43;;;;;;;;;;5102262;28;20097;-80
2023/07/17 01:11:23;;;;;;;12.10;10.07;;;;;;;;;;5070204;28;20032;-81
2023/07/17 01:13:49;;;;;;;16.42;10.65;;;;;;;;;;5105808;28;20028;-80
2023/07/17 01:16:15;;;;;;;10.85;9.98;;;;;;;;;;5101160;28;20036;-81
2023/07/17 01:18:41;;;;;;;12.27;10.57;;;;;;;;;;5100261;28;20035;-82
2023/07/17 01:21:08;;;;;;;17.08;10.95;;;;;;;;;;5100131;28;20032;-80
2023/07/17 01:23:36;;;;;;;16.27;11.43;;;;;;;;;;5098902;28;20131;-82
2023/07/17 01:26:10;;;;;;;16.00;10.63;;;;;;;;;;5099864;28;20081;-81
2023/07/17 01:28:36;;;;;;;20.95;10.38;;;;;;;;;;5102263;28;20040;-82
2023/07/17 01:31:02;;;;;;;11.20;10.10;;;;;;;;;;5101952;28;20040;-81
2023/07/17 01:33:28;;;;;;;12.25;10.65;;;;;;;;;;5101234;28;20410;-79
2023/07/17 01:35:56;;;;;;;16.05;10.88;;;;;;;;;;5100549;28;20054;-81
2023/07/17 01:38:22;;;;;;;16.05;14.38;;;;;;;;;;5100976;28;20036;-83
2023/07/17 01:40:48;;;;;;;24.85;18.13;;;;;;;;;;5100043;28;20071;-81
2023/07/17 01:43:14;;;;;;;20.95;13.35;;;;;;;;;;5101172;28;20449;-81
2023/07/17 01:45:40;;;;;;;13.10;11.73;;;;;;;;;;5100851;28;20095;-81
2023/07/17 01:48:06;;;;;;;14.25;10.75;;;;;;;;;;5100649;28;20071;-83
2023/07/17 01:50:32;;;;;;;10.82;9.93;;;;;;;;;;5098714;28;20040;-80
2023/07/17 01:52:58;;;;;;;11.18;10.05;;;;;;;;;;5096122;28;20119;-81
2023/07/17 01:55:26;;;;;;;9.98;9.02;;;;;;;;;;5095644;28;20492;-83
2023/07/17 01:57:52;;;;;;;12.52;9.40;;;;;;;;;;5096117;28;20117;-79
2023/07/17 02:00:18;;;;;;;14.65;9.68;;;;;;;;;;5118294;28;20088;-80
2023/07/17 02:02:44;;;;;;;10.70;9.27;;;;;;;;;;5116684;28;20020;-81
2023/07/17 02:05:10;;;;;;;11.73;10.63;;;;;;;;;;5117689;28;20044;-80
2023/07/17 02:07:36;;;;;;;16.25;10.07;;;;;;;;;;5108555;28;20054;-81
2023/07/17 02:10:03;;;;;;;16.23;10.75;;;;;;;;;;5095026;28;20032;-81
2023/07/17 02:12:32;;;;;;;13.30;10.20;;;;;;;;;;5094867;28;20154;-78
2023/07/17 02:15:01;;;;;;;14.18;10.38;;;;;;;;;;5093561;28;20047;-80
2023/07/17 02:17:31;;;;;;;12.02;10.48;;;;;;;;;;5093555;28;20085;-82
2023/07/17 02:19:57;;;;;;;16.35;10.27;;;;;;;;;;5093956;28;20068;-79
2023/07/17 02:22:23;;;;;;;17.02;10.82;;;;;;;;;;5094686;28;20036;-80
2023/07/17 02:24:49;;;;;;;13.27;10.45;;;;;;;;;;5094341;28;20043;-79
2023/07/17 02:27:15;;;;;;;14.80;10.70;;;;;;;;;;5093974;28;20032;-79
2023/07/17 02:29:42;;;;;;;15.23;10.82;;;;;;;;;;5093577;28;20414;-81
2023/07/17 02:32:08;;;;;;;12.18;10.00;;;;;;;;;;5093652;28;20104;-80
2023/07/17 02:34:34;;;;;;;12.05;9.48;;;;;;;;;;5095327;28;20494;-81
2023/07/17 02:36:59;;;;;;;13.02;9.73;;;;;;;;;;5094434;28;20043;-80
2023/07/17 02:39:25;;;;;;;16.15;9.57;;;;;;;;;;5078209;28;20028;-81
2023/07/17 02:41:51;;;;;;;16.33;10.63;;;;;;;;;;5096804;28;20076;-80
2023/07/17 02:44:17;;;;;;;10.48;9.30;;;;;;;;;;5095577;28;20070;-81
2023/07/17 02:46:44;;;;;;;13.55;8.77;;;;;;;;;;5096189;28;20036;-81
2023/07/17 02:49:11;;;;;;;11.13;9.93;;;;;;;;;;5096452;28;20127;-80
2023/07/17 02:51:37;;;;;;;10.18;9.02;;;;;;;;;;5098762;28;20039;-80
2023/07/17 02:54:03;;;;;;;10.38;8.82;;;;;;;;;;5100246;28;20038;-81
2023/07/17 02:56:29;;;;;;;12.35;9.30;;;;;;;;;;5100130;28;20063;-81
2023/07/17 02:58:55;;;;;;;15.40;9.15;;;;;;;;;;5096137;28;20146;-80
2023/07/17 03:01:21;;;;;;;14.45;8.80;;;;;;;;;;5093453;28;20110;-80
2023/07/17 03:03:48;;;;;;;11.73;8.80;;;;;;;;;;5096441;28;20533;-81
2023/07/17 03:06:14;;;;;;;10.90;9.00;;;;;;;;;;5093617;28;20115;-81
2023/07/17 03:08:40;;;;;;;14.93;9.25;;;;;;;;;;5094822;28;20042;-81
2023/07/17 03:11:06;;;;;;;12.32;10.20;;;;;;;;;;5093250;28;20032;-81
2023/07/17 03:13:32;;;;;;;10.60;8.75;;;;;;;;;;5093871;28;20560;-79
2023/07/17 03:15:58;;;;;;;9.40;8.60;;;;;;;;;;5091477;28;20410;-80
2023/07/17 03:18:27;;;;;;;9.77;8.75;;;;;;;;;;5092257;28;20047;-79
2023/07/17 03:20:54;;;;;;;11.02;10.02;;;;;;;;;;5092095;28;20036;-79
2023/07/17 03:23:20;;;;;;;13.60;9.05;;;;;;;;;;5057282;28;20136;-79
2023/07/17 03:25:46;;;;;;;9.55;8.80;;;;;;;;;;5092111;28;20028;-79
2023/07/17 03:28:13;;;;;;;12.13;9.30;;;;;;;;;;5073545;28;20035;-79
2023/07/17 03:30:39;;;;;;;13.52;9.93;;;;;;;;;;5090832;28;20035;-78
2023/07/17 03:33:05;;;;;;;11.15;10.00;;;;;;;;;;5090299;28;20040;-78
2023/07/17 03:35:33;;;;;;;11.98;9.82;;;;;;;;;;5091825;28;20085;-78
2023/07/17 03:37:59;;;;;;;13.23;10.27;;;;;;;;;;5091546;28;20395;-79
2023/07/17 03:40:25;;;;;;;11.48;10.25;;;;;;;;;;5089749;28;20036;-79
2023/07/17 03:42:51;;;;;;;17.02;10.65;;;;;;;;;;5073747;28;20119;-79
2023/07/17 03:45:17;;;;;;;12.48;11.23;;;;;;;;;;5090558;28;20529;-79
2023/07/17 03:47:44;;;;;;;19.58;12.15;;;;;;;;;;5073536;28;20119;-78
2023/07/17 03:50:10;;;;;;;16.25;11.25;;;;;;;;;;5090010;28;20085;-78
2023/07/17 03:52:36;;;;;;;13.45;11.85;;;;;;;;;;5073452;28;20032;-78
2023/07/17 03:55:02;;;;;;;15.88;11.98;;;;;;;;;;5091302;28;20032;-78
2023/07/17 03:57:30;;;;;;;15.93;11.57;;;;;;;;;;5090550;28;20043;-77
2023/07/17 03:59:56;;;;;;;16.52;11.82;;;;;;;;;;5090150;28;20100;-78
2023/07/17 04:02:32;;;;;;;20.90;12.38;;;;;;;;;;5092241;28;20036;-76
2023/07/17 04:04:58;;;;;;;16.77;11.20;;;;;;;;;;5074371;28;20536;-78
2023/07/17 04:07:24;;;;;;;17.25;11.05;;;;;;;;;;5090284;28;20032;-79
2023/07/17 04:09:51;;;;;;;22.50;12.45;;;;;;;;;;5074263;28;20047;-78
2023/07/17 04:12:17;;;;;;;17.02;12.35;;;;;;;;;;5094260;28;20052;-77
2023/07/17 04:14:43;;;;;;;16.05;11.85;;;;;;;;;;5101522;28;20036;-78
2023/07/17 04:17:10;;;;;;;18.73;12.68;;;;;;;;;;5103461;28;20264;-78
2023/07/17 04:19:36;;;;;;;14.00;11.25;;;;;;;;;;5097914;28;20036;-78
2023/07/17 04:22:02;;;;;;;12.57;11.48;;;;;;;;;;5090019;28;20039;-76
2023/07/17 04:24:29;;;;;;;20.90;11.25;;;;;;;;;;5072665;28;20070;-77
2023/07/17 04:26:55;;;;;;;19.88;11.98;;;;;;;;;;5073233;28;20559;-79
2023/07/17 04:29:22;;;;;;;15.60;13.45;;;;;;;;;;5089601;28;20036;-79
2023/07/17 04:31:48;;;;;;;15.80;11.98;;;;;;;;;;5089590;28;20257;-78
2023/07/17 04:34:15;;;;;;;13.30;12.13;;;;;;;;;;5089339;28;20063;-80
2023/07/17 04:36:41;;;;;;;16.00;12.85;;;;;;;;;;5089969;28;20036;-80
2023/07/17 04:39:07;;;;;;;20.92;12.82;;;;;;;;;;5090259;28;20048;-79
2023/07/17 04:41:34;;;;;;;22.60;12.48;;;;;;;;;;5091943;28;20407;-79
2023/07/17 04:44:00;;;;;;;21.02;11.82;;;;;;;;;;5115661;28;20024;-79
2023/07/17 04:46:26;;;;;;;17.30;13.00;;;;;;;;;;5087094;28;20055;-79
2023/07/17 04:48:53;;;;;;;17.42;12.88;;;;;;;;;;5096297;28;20075;-77
2023/07/17 04:51:21;;;;;;;14.23;12.75;;;;;;;;;;5093079;28;20096;-78
2023/07/17 04:53:47;;;;;;;13.35;11.98;;;;;;;;;;5094082;28;20043;-81
2023/07/17 04:56:13;;;;;;;15.20;11.70;;;;;;;;;;5096663;28;20131;-79
2023/07/17 04:58:39;;;;;;;13.43;11.50;;;;;;;;;;5098160;28;20085;-81
2023/07/17 05:01:05;;;;;;;14.55;11.18;;;;;;;;;;5095497;28;20070;-82
2023/07/17 05:03:33;;;;;;;15.30;11.27;;;;;;;;;;5079592;28;20036;-79
2023/07/17 05:06:00;;;;;;;21.08;10.93;;;;;;;;;;5096858;28;20036;-82
2023/07/17 05:08:26;;;;;;;11.57;10.48;;;;;;;;;;5080214;28;20040;-82
2023/07/17 05:10:53;;;;;;;13.68;11.40;;;;;;;;;;5099567;28;20356;-81
2023/07/17 05:13:20;;;;;;;11.38;10.07;;;;;;;;;;5080315;28;20163;-81
2023/07/17 05:15:46;;;;;;;14.02;10.23;;;;;;;;;;5097260;28;20035;-84
2023/07/17 05:18:13;;;;;;;17.55;9.50;;;;;;;;;;5097618;28;20044;-81
2023/07/17 05:20:39;;;;;;;12.85;9.75;;;;;;;;;;5097950;28;20105;-81
2023/07/17 05:23:05;;;;;;;18.20;8.38;;;;;;;;;;5097477;28;20096;-82
2023/07/17 05:25:32;;;;;;;19.50;8.02;;;;;;;;;;5096177;28;20039;-82
2023/07/17 05:27:58;;;;;;;9.35;8.07;;;;;;;;;;5097133;28;20410;-82
2023/07/17 05:30:25;;;;;;;8.75;7.20;;;;;;;;;;5095875;28;20123;-82
2023/07/17 05:32:51;;;;;;;15.90;7.13;;;;;;;;;;5098189;28;20525;-82
2023/07/17 05:35:16;;;;;;;12.45;6.85;;;;;;;;;;5098798;28;20498;-81
2023/07/17 05:37:42;;;;;;;12.50;6.57;;;;;;;;;;5097837;28;20088;-82
2023/07/17 05:40:09;;;;;;;12.52;6.63;;;;;;;;;;5096455;28;20035;-80
2023/07/17 05:42:35;;;;;;;22.00;7.45;;;;;;;;;;5097340;28;20062;-83
2023/07/17 05:45:02;;;;;;;11.10;6.35;;;;;;;;;;5095841;28;20042;-82
2023/07/17 05:47:30;;;;;;;23.15;6.85;;;;;;;;;;5096552;28;20502;-81
2023/07/17 05:49:57;;;;;;;14.05;6.45;;;;;;;;;;5097035;28;20085;-80
2023/07/17 05:52:23;;;;;;;12.40;6.72;;;;;;;;;;5096265;28;20453;-79
2023/07/17 05:54:49;;;;;;;11.95;6.13;;;;;;;;;;5096117;28;20086;-80
2023/07/17 05:57:16;;;;;;;8.35;7.13;;;;;;;;;;5095593;28;20048;-82
2023/07/17 05:59:43;;;;;;;11.20;7.32;;;;;;;;;;5079007;28;20028;-82
2023/07/17 06:02:09;;;;;;;7.22;6.20;;;;;;;;;;5096853;28;20036;-82
2023/07/17 06:04:35;;;;;;;12.23;6.22;;;;;;;;;;5096847;28;20032;-80
2023/07/17 06:07:01;;;;;;;9.77;5.85;;;;;;;;;;5097991;28;20452;-82
2023/07/17 06:09:27;;;;;;;6.90;6.20;;;;;;;;;;5097291;28;20123;-82
2023/07/17 06:11:53;;;;;;;11.02;6.97;;;;;;;;;;5095251;28;20070;-81
2023/07/17 06:14:19;;;;;;;9.38;5.80;;;;;;;;;;5094464;28;20115;-82
2023/07/17 06:16:45;;;;;;;7.15;5.85;;;;;;;;;;5095931;28;20181;-82
2023/07/17 06:19:11;;;;;;;6.93;5.40;;;;;;;;;;5095909;28;20051;-81
2023/07/17 06:21:37;;;;;;;7.57;5.20;;;;;;;;;;5096051;28;20444;-80
2023/07/17 06:24:06;;;;;;;6.90;5.43;;;;;;;;;;5094995;28;20043;-82
2023/07/17 06:26:32;;;;;;;8.13;5.95;;;;;;;;;;5094407;28;20080;-81
2023/07/17 06:28:58;;;;;;;8.32;6.18;;;;;;;;;;5077893;28;20032;-82
2023/07/17 06:31:24;;;;;;;7.45;5.88;;;;;;;;;;5078191;28;20406;-81
2023/07/17 06:33:50;;;;;;;8.23;6.10;;;;;;;;;;5096474;28;20061;-81
2023/07/17 06:36:16;;;;;;;8.40;5.68;;;;;;;;;;5096085;28;20028;-82
2023/07/17 06:38:42;;;;;;;6.25;5.70;;;;;;;;;;5095846;28;20047;-82
2023/07/17 06:41:08;;;;;;;9.30;5.85;;;;;;;;;;5095980;28;20070;-80
2023/07/17 06:43:34;;;;;;;12.20;5.30;;;;;;;;;;5095972;28;20032;-80
2023/07/17 06:46:00;;;;;;;6.30;5.28;;;;;;;;;;5096227;28;20036;-83
2023/07/17 06:48:26;;;;;;;6.70;5.13;;;;;;;;;;5095361;28;20059;-81
2023/07/17 06:50:52;;;;;;;6.28;5.68;;;;;;;;;;5095737;28;20586;-82
2023/07/17 06:53:18;;;;;;;6.70;5.53;;;;;;;;;;5095493;28;20040;-83
2023/07/17 06:55:44;;;;;;;6.72;5.85;;;;;;;;;;5061836;28;20036;-83
2023/07/17 06:58:10;;;;;;;8.95;6.30;;;;;;;;;;5095745;28;20054;-81
2023/07/17 07:00:36;;;;;;;6.78;6.18;;;;;;;;;;5094261;28;20590;-82
2023/07/17 07:03:02;;;;;;;7.03;5.18;;;;;;;;;;5094144;28;20086;-82
2023/07/17 07:05:29;;;;;;;7.13;4.90;;;;;;;;;;5093918;28;20032;-83
2023/07/17 07:07:55;;;;;;;6.80;5.93;;;;;;;;;;5094792;28;20032;-80
2023/07/17 07:10:21;;;;;;;9.75;5.38;;;;;;;;;;5094311;28;20521;-82
2023/07/17 07:12:47;;;;;;;12.05;5.65;;;;;;;;;;5099955;28;20063;-82
2023/07/17 07:15:13;;;;;;;12.10;5.20;;;;;;;;;;5105739;28;20127;-80
2023/07/17 07:17:39;;;;;;;8.70;4.43;;;;;;;;;;5102159;28;20052;-81
2023/07/17 07:20:05;;;;;;;6.05;4.43;;;;;;;;;;5095383;28;20035;-81
2023/07/17 07:22:31;;;;;;;11.73;4.28;;;;;;;;;;5094850;28;20039;-82
2023/07/17 07:24:57;;;;;;;4.05;3.75;;;;;;;;;;5094081;28;20079;-81
2023/07/17 07:27:23;;;;;;;4.35;3.92;;;;;;;;;;5108921;28;20036;-81
2023/07/17 07:29:49;;;;;;;6.43;3.95;;;;;;;;;;5115382;28;20081;-82
2023/07/17 07:32:15;;;;;;;4.80;4.30;;;;;;;;;;5110893;28;20043;-82
2023/07/17 07:34:41;;;;;;;5.40;4.53;;;;;;;;;;5108683;28;20032;-84
2023/07/17 07:37:07;;;;;;;6.43;5.03;;;;;;;;;;5099010;28;20036;-82
2023/07/17 07:39:33;;;;;;;7.53;5.38;;;;;;;;;;5094517;28;20058;-79
2023/07/17 07:41:59;;;;;;;6.10;5.53;;;;;;;;;;5095143;28;20047;-82
2023/07/17 07:44:25;;;;;;;4.97;4.68;;;;;;;;;;5077959;28;20032;-83
2023/07/17 07:46:51;;;;;;;7.15;4.35;;;;;;;;;;5096456;28;20036;-82
2023/07/17 07:49:17;;;;;;;5.57;4.25;;;;;;;;;;5094228;28;20042;-82
2023/07/17 07:51:43;;;;;;;10.95;4.18;;;;;;;;;;5095123;28;20032;-81
2023/07/17 07:54:09;;;;;;;4.95;4.47;;;;;;;;;;5095379;28;20058;-82
2023/07/17 07:56:35;;;;;;;7.60;4.25;;;;;;;;;;5093535;28;20038;-82
2023/07/17 07:59:01;;;;;;;7.70;4.80;;;;;;;;;;5074771;28;20052;-81
2023/07/17 08:01:27;;;;;;;6.07;4.32;;;;;;;;;;5093477;28;20032;-81
2023/07/17 08:03:53;;;;;;;6.25;4.30;;;;;;;;;;5092552;28;20442;-80
2023/07/17 08:06:19;;;;;;;4.43;4.03;;;;;;;;;;5075815;28;20039;-81
2023/07/17 08:08:45;;;;;;;4.35;3.95;;;;;;;;;;5092286;28;20418;-82
2023/07/17 08:11:12;;;;;;;7.55;4.82;;;;;;;;;;5092818;28;20027;-82
2023/07/17 08:13:38;;;;;;;6.32;4.55;;;;;;;;;;5092885;28;20054;-82
2023/07/17 08:16:04;;;;;;;4.80;4.40;;;;;;;;;;5074835;28;20244;-82
2023/07/17 08:18:30;;;;;;;4.35;3.90;;;;;;;;;;5092036;28;20669;-82
2023/07/17 08:20:56;;;;;;;4.18;3.83;;;;;;;;;;5092269;28;20035;-81
2023/07/17 08:23:25;;;;;;;8.80;3.70;;;;;;;;;;5093977;28;20128;-84
2023/07/17 08:25:51;;;;;;;;;;;;;;;;;;5093567;28;20073;-82
2023/07/17 08:28:17;;;;;;;9.52;4.10;;;;;;;;;;5090189;28;19919;-81
2023/07/17 08:30:43;;;;;;;6.30;4.25;;;;;;;;;;5091526;28;20035;-82
2023/07/17 08:33:11;;;;;;;5.60;3.97;;;;;;;;;;5093992;28;20392;-83
2023/07/17 08:35:37;;;;;;;6.07;4.18;;;;;;;;;;5092808;28;20513;-83
2023/07/17 08:38:03;;;;;;;6.90;3.92;;;;;;;;;;5092335;28;20048;-81
2023/07/17 08:40:29;;;;;;;4.55;3.97;;;;;;;;;;5091706;28;20047;-82
2023/07/17 08:42:55;;;;;;;5.18;3.97;;;;;;;;;;5091229;28;20036;-82
2023/07/17 08:45:22;;;;;;;4.85;3.88;;;;;;;;;;5092482;28;20503;-82
2023/07/17 08:47:48;;;;;;;4.20;3.80;;;;;;;;;;5092541;28;20116;-83
2023/07/17 08:50:14;;;;;;;4.50;4.20;;;;;;;;;;5091472;28;20119;-80
2023/07/17 08:52:40;;;;;;;6.70;4.10;;;;;;;;;;5091819;28;20048;-82
2023/07/17 08:55:06;;;;;;;7.50;4.10;;;;;;;;;;5092398;28;20036;-82
2023/07/17 08:57:32;;;;;;;4.50;4.10;;;;;;;;;;5092445;28;20036;-83
2023/07/17 08:59:58;;;;;;;4.35;3.95;;;;;;;;;;5093456;28;20035;-83
2023/07/17 09:02:24;;;;;;;5.90;4.15;;;;;;;;;;5092375;28;20036;-81
2023/07/17 09:04:50;;;;;;;5.28;3.90;;;;;;;;;;5090954;28;20043;-83
2023/07/17 09:07:16;;;;;;;4.43;4.03;;;;;;;;;;5092170;28;20525;-81
2023/07/17 09:09:42;;;;;;;8.90;3.80;;;;;;;;;;5074111;28;20036;-82
2023/07/17 09:12:09;;;;;;;4.35;4.03;;;;;;;;;;5091400;28;20056;-82
2023/07/17 09:14:35;;;;;;;4.97;4.20;;;;;;;;;;5091567;28;20406;-81
2023/07/17 09:17:04;;;;;;;6.78;4.45;;;;;;;;;;5091092;28;20039;-83
2023/07/17 09:19:31;;;;;;;5.03;4.00;;;;;;;;;;5091276;28;20102;-82
2023/07/17 09:21:58;;;;;;;4.78;4.20;;;;;;;;;;5089668;28;20040;-81
2023/07/17 09:24:24;;;;;;;6.57;4.43;;;;;;;;;;5089505;28;20073;-81
2023/07/17 09:26:56;;;;;;;8.35;4.30;;;;;;;;;;5072981;28;20040;-82
2023/07/17 09:29:23;;;;;;;4.68;4.28;;;;;;;;;;5090085;28;20069;-82
2023/07/17 09:31:49;;;;;;;6.00;4.13;;;;;;;;;;5091107;28;20036;-82
2023/07/17 09:34:15;;;;;;;11.95;4.30;;;;;;;;;;5089419;28;20418;-81
2023/07/17 09:36:41;;;;;;;6.18;4.10;;;;;;;;;;5089896;28;20502;-82
2023/07/17 09:39:08;;;;;;;4.75;4.20;;;;;;;;;;5092608;28;20075;-81
2023/07/17 09:41:34;;;;;;;4.65;4.25;;;;;;;;;;5059652;28;20391;-79
2023/07/17 09:44:01;;;;;;;7.40;5.05;;;;;;;;;;5077304;28;20077;-81
2023/07/17 09:46:27;;;;;;;5.60;4.15;;;;;;;;;;5095074;28;20031;-83
2023/07/17 09:48:53;;;;;;;5.70;4.47;;;;;;;;;;5095618;28;20042;-81
2023/07/17 09:51:20;;;;;;;9.30;4.70;;;;;;;;;;5098129;28;20024;-82
2023/07/17 09:53:46;;;;;;;5.10;4.60;;;;;;;;;;5095946;28;20046;-81
2023/07/17 09:56:13;;;;;;;7.00;4.57;;;;;;;;;;5094878;28;20039;-83
2023/07/17 09:58:39;;;;;;;6.22;4.90;;;;;;;;;;5095486;28;20075;-82
2023/07/17 10:01:05;;;;;;;5.90;4.45;;;;;;;;;;5095663;28;20502;-81
2023/07/17 10:03:31;;;;;;;5.00;4.50;;;;;;;;;;5096337;28;20047;-81
2023/07/17 10:05:57;;;;;;;5.93;4.40;;;;;;;;;;5094839;28;20039;-84
2023/07/17 10:08:23;;;;;;;8.65;4.47;;;;;;;;;;5096800;28;20047;-83
2023/07/17 10:10:49;;;;;;;6.20;4.63;;;;;;;;;;5104103;28;20032;-81
2023/07/17 10:13:15;;;;;;;10.52;4.65;;;;;;;;;;5116428;28;20060;-81
2023/07/17 10:15:41;;;;;;;6.93;4.10;;;;;;;;;;5111197;28;20040;-82
2023/07/17 10:18:09;;;;;;;4.85;4.45;;;;;;;;;;5106227;28;20058;-81
2023/07/17 10:20:35;;;;;;;4.82;4.43;;;;;;;;;;5098275;28;20035;-82
2023/07/17 10:23:01;;;;;;;7.07;4.40;;;;;;;;;;5093296;28;20047;-81
2023/07/17 10:25:27;;;;;;;9.10;4.70;;;;;;;;;;5093160;28;20498;-82
2023/07/17 10:27:57;;;;;;;4.80;4.30;;;;;;;;;;5094069;28;20040;-79
2023/07/17 10:30:29;;;;;;;4.90;4.40;;;;;;;;;;5093735;28;20561;-82
2023/07/17 10:33:19;;;;;;;4.78;4.10;;;;;;;;;;5092583;28;20036;-82
2023/07/17 10:35:52;;;;;;;4.90;4.40;;;;;;;;;;5093067;28;20119;-82
2023/07/17 10:38:22;;;;;;;5.57;4.22;;;;;;;;;;5093352;28;20294;-81
2023/07/17 10:40:48;;;;;;;4.35;4.00;;;;;;;;;;5093088;28;20038;-80
2023/07/17 10:43:18;;;;;;;4.82;4.10;;;;;;;;;;5091943;28;20063;-78
2023/07/17 10:45:44;;;;;;;6.80;3.90;;;;;;;;;;5091642;28;20043;-82
2023/07/17 10:48:10;;;;;;;4.10;3.70;;;;;;;;;;5093341;28;20085;-81
2023/07/17 10:50:37;;;;;;;6.65;4.15;;;;;;;;;;5090693;28;20048;-81
2023/07/17 10:53:03;;;;;;;6.30;3.72;;;;;;;;;;5092940;28;20038;-82
2023/07/17 10:55:30;;;;;;;5.00;4.47;;;;;;;;;;5092198;28;20084;-82
2023/07/17 10:57:56;;;;;;;4.32;3.88;;;;;;;;;;5092690;28;20047;-81
2023/07/17 11:00:22;;;;;;;10.30;4.38;;;;;;;;;;5092044;28;20044;-82
2023/07/17 11:02:48;;;;;;;4.45;4.05;;;;;;;;;;5092901;28;20054;-82
2023/07/17 11:05:15;;;;;;;5.30;3.60;;;;;;;;;;5093384;28;20277;-82
2023/07/17 11:07:41;;;;;;;4.38;3.25;;;;;;;;;;5093278;28;20121;-81
2023/07/17 11:10:11;;;;;;;4.82;3.90;;;;;;;;;;5093264;28;20130;-82
2023/07/17 11:12:38;;;;;;;4.55;3.90;;;;;;;;;;5092495;28;20124;-82
2023/07/17 11:15:05;;;;;;;4.47;4.00;;;;;;;;;;5093286;28;20383;-80
2023/07/17 11:17:32;;;;;;;4.85;4.05;;;;;;;;;;5091591;28;20046;-81
2023/07/17 11:19:59;;;;;;;3.53;3.33;;;;;;;;;;5093981;28;20079;-80
2023/07/17 11:22:29;;;;;;;5.15;4.20;;;;;;;;;;5093135;28;20081;-82
2023/07/17 11:24:55;;;;;;;3.33;3.13;;;;;;;;;;5091843;28;20067;-81
2023/07/17 11:27:21;;;;;;;3.78;3.53;;;;;;;;;;5093028;28;20399;-82
2023/07/17 11:29:50;;;;;;;4.57;3.50;;;;;;;;;;5092703;28;20128;-81
2023/07/17 11:32:19;;;;;;;6.95;3.67;;;;;;;;;;5094101;28;20028;-78
2023/07/17 11:34:46;;;;;;;3.70;3.47;;;;;;;;;;5092664;28;20124;-81
2023/07/17 11:37:31;;;;;;;3.63;3.38;;;;;;;;;;5075486;28;20635;-80
2023/07/17 11:39:57;;;;;;;4.32;3.80;;;;;;;;;;5094537;28;20044;-80
2023/07/17 11:42:23;;;;;;;5.25;3.53;;;;;;;;;;5098872;28;20039;-81
2023/07/17 11:44:59;;;;;;;3.72;3.42;;;;;;;;;;5096065;28;20036;-79
2023/07/17 11:47:26;;;;;;;5.20;3.20;;;;;;;;;;5097270;28;20529;-82
2023/07/17 11:49:52;;;;;;;6.97;3.72;;;;;;;;;;5098185;28;20371;-80
2023/07/17 11:52:18;;;;;;;4.10;3.80;;;;;;;;;;5093669;28;20046;-82
2023/07/17 11:54:44;;;;;;;4.13;3.83;;;;;;;;;;5092517;28;20380;-82
2023/07/17 11:57:11;;;;;;;3.40;3.15;;;;;;;;;;5090312;28;20050;-83
2023/07/17 11:59:37;;;;;;;3.80;3.50;;;;;;;;;;5091896;28;20533;-81
2023/07/17 12:02:03;;;;;;;4.63;4.00;;;;;;;;;;5091158;28;20550;-83
2023/07/17 12:04:32;;;;;;;4.82;4.35;;;;;;;;;;5074014;28;20036;-81
2023/07/17 12:07:00;;;;;;;5.63;3.90;;;;;;;;;;5091711;28;20115;-81
2023/07/17 12:09:26;;;;;;;4.55;4.20;;;;;;;;;;5092216;28;20094;-81
2023/07/17 12:11:53;;;;;;;3.90;3.63;;;;;;;;;;5090126;28;20068;-81
2023/07/17 12:14:18;;;;;;;4.18;3.90;;;;;;;;;;5090446;28;20484;-83
2023/07/17 12:16:45;;;;;;;4.68;4.35;;;;;;;;;;5090326;28;20054;-82
2023/07/17 12:19:11;;;;;;;4.32;3.95;;;;;;;;;;5090104;28;20048;-81
2023/07/17 12:21:37;;;;;;;4.43;4.00;;;;;;;;;;5090912;28;20028;-82
2023/07/17 12:24:04;;;;;;;4.55;4.25;;;;;;;;;;5091334;28;20040;-81
2023/07/17 12:26:30;;;;;;;6.10;4.10;;;;;;;;;;5091519;28;20533;-81
2023/07/17 12:28:57;;;;;;;12.50;4.60;;;;;;;;;;5091203;28;20040;-82
2023/07/17 12:31:24;;;;;;;5.10;4.70;;;;;;;;;;5090428;28;20028;-82
2023/07/17 12:33:50;;;;;;;4.95;4.55;;;;;;;;;;5091163;28;20075;-82
2023/07/17 12:36:17;;;;;;;7.68;4.20;;;;;;;;;;5091535;28;20063;-80
2023/07/17 12:38:42;;;;;;;4.40;4.10;;;;;;;;;;5091902;28;20071;-81
2023/07/17 12:41:08;;;;;;;6.43;4.13;;;;;;;;;;5091818;28;20402;-82
2023/07/17 12:43:35;;;;;;;5.15;4.32;;;;;;;;;;5091097;28;20043;-80
2023/07/17 12:46:01;;;;;;;6.03;4.72;;;;;;;;;;5090251;28;20113;-81
2023/07/17 12:48:27;;;;;;;4.80;4.18;;;;;;;;;;5091371;28;20535;-82
2023/07/17 12:50:53;;;;;;;4.70;4.40;;;;;;;;;;5091144;28;20032;-81
2023/07/17 12:53:19;;;;;;;7.20;4.80;;;;;;;;;;5091424;28;20490;-82
2023/07/17 12:55:45;;;;;;;4.47;4.18;;;;;;;;;;5091480;28;20044;-82
2023/07/17 12:58:11;;;;;;;7.00;5.13;;;;;;;;;;5111754;28;20028;-80
2023/07/17 13:00:37;;;;;;;4.30;4.00;;;;;;;;;;5112431;28;20067;-80
2023/07/17 13:03:04;;;;;;;4.95;4.57;;;;;;;;;;5106578;28;20036;-80
2023/07/17 13:05:29;;;;;;;6.88;4.45;;;;;;;;;;5103518;28;20040;-82
2023/07/17 13:07:56;;;;;;;5.05;4.55;;;;;;;;;;5104868;28;20036;-81
2023/07/17 13:10:22;;;;;;;5.68;4.45;;;;;;;;;;5100014;28;20051;-82
2023/07/17 13:12:48;;;;;;;7.57;4.53;;;;;;;;;;5095207;28;20075;-83
2023/07/17 13:15:14;;;;;;;4.50;4.10;;;;;;;;;;5102216;28;20028;-81
2023/07/17 13:17:40;;;;;;;8.18;4.78;;;;;;;;;;5104528;28;20043;-80
2023/07/17 13:20:06;;;;;;;4.57;4.20;;;;;;;;;;5103302;28;20050;-80
2023/07/17 13:22:32;;;;;;;5.05;4.25;;;;;;;;;;5100988;28;20059;-82
2023/07/17 13:24:58;;;;;;;4.85;4.35;;;;;;;;;;5094031;28;20040;-83
2023/07/17 13:27:25;;;;;;;4.60;4.30;;;;;;;;;;5095798;28;20034;-81
2023/07/17 13:29:51;;;;;;;4.85;4.28;;;;;;;;;;5094748;28;20119;-81
2023/07/17 13:32:17;;;;;;;5.13;4.40;;;;;;;;;;5094679;28;20498;-82
2023/07/17 13:34:43;;;;;;;4.45;4.18;;;;;;;;;;5094464;28;20032;-81
2023/07/17 13:37:09;;;;;;;5.60;4.70;;;;;;;;;;5093387;28;20047;-78
2023/07/17 13:39:34;;;;;;;4.70;4.30;;;;;;;;;;5076876;28;20032;-82
2023/07/17 13:42:01;;;;;;;5.40;4.18;;;;;;;;;;5060249;28;20031;-81
2023/07/17 13:44:27;;;;;;;5.53;4.38;;;;;;;;;;5094183;28;20093;-81
2023/07/17 13:46:53;;;;;;;4.70;4.00;;;;;;;;;;5094192;28;20040;-81
2023/07/17 13:49:19;;;;;;;5.43;4.28;;;;;;;;;;5094268;28;20032;-82
2023/07/17 13:51:46;;;;;;;4.10;3.70;;;;;;;;;;5094214;28;20081;-80
2023/07/17 13:54:13;;;;;;;4.40;4.10;;;;;;;;;;5092811;28;20036;-82
2023/07/17 13:56:39;;;;;;;4.10;3.63;;;;;;;;;;5093396;28;20036;-81
2023/07/17 13:59:07;;;;;;;4.35;3.95;;;;;;;;;;5094293;28;20040;-82
2023/07/17 14:01:34;;;;;;;4.82;4.07;;;;;;;;;;5094559;28;20036;-81
2023/07/17 14:04:02;;;;;;;6.07;3.95;;;;;;;;;;5094264;28;20047;-81
2023/07/17 14:06:28;;;;;;;5.68;4.28;;;;;;;;;;5076401;28;20034;-82
2023/07/17 14:08:55;;;;;;;4.00;3.80;;;;;;;;;;5075563;28;20134;-81
2023/07/17 14:11:21;;;;;;;4.22;3.80;;;;;;;;;;5092230;28;20068;-82
2023/07/17 14:13:47;;;;;;;3.90;3.70;;;;;;;;;;5092921;28;20064;-82
2023/07/17 14:16:13;;;;;;;4.20;3.80;;;;;;;;;;5094153;28;20105;-81
2023/07/17 14:18:40;;;;;;;4.28;4.00;;;;;;;;;;5093581;28;20058;-83
2023/07/17 14:21:06;;;;;;;6.10;3.90;;;;;;;;;;5093469;28;20402;-80
2023/07/17 14:23:35;;;;;;;4.45;4.03;;;;;;;;;;5093793;28;20036;-82
2023/07/17 14:26:02;;;;;;;3.97;3.73;;;;;;;;;;5090727;28;20047;-82
2023/07/17 14:28:28;;;;;;;6.15;4.00;;;;;;;;;;5093816;28;20123;-81